sensor_id;sensor_type;location;lat;lon;timestamp;P1;durP1;ratioP1;P2;durP2;ratioP2
70967;SDS011;58629;48.808;8.820;2023-07-28T00:01:33;2.63;;;1.87;;
70967;SDS011;58629;48.808;8.820;2023-07-28T00:04:00;2.83;;;1.90;;
70967;SDS011;58629;48.808;8.820;2023-07-28T00:06:25;2.23;;;1.93;;
70967;SDS011;58629;48.808;8.820;2023-07-28T00:08:50;2.47;;;2.00;;
70967;SDS011;58629;48.808;8.820;2023-07-28T00:11:16;2.97;;;2.20;;
70967;SDS011;58629;48.808;8.820;2023-07-28T00:13:42;2.42;;;2.00;;
70967;SDS011;58629;48.808;8.820;2023-07-28T00:16:08;3.42;;;2.10;;
70967;SDS011;58629;48.808;8.820;2023-07-28T00:18:34;3.97;;;2.35;;
70967;SDS011;58629;48.808;8.820;2023-07-28T00:21:00;2.60;;;1.93;;
70967;SDS011;58629;48.808;8.820;2023-07-28T00:23:25;3.75;;;2.38;;
70967;SDS011;58629;48.808;8.820;2023-07-28T00:25:51;2.63;;;2.10;;
70967;SDS011;58629;48.808;8.820;2023-07-28T00:28:16;3.73;;;2.20;;
70967;SDS011;58629;48.808;8.820;2023-07-28T00:30:41;3.33;;;2.10;;
70967;SDS011;58629;48.808;8.820;2023-07-28T00:33:07;3.25;;;2.30;;
70967;SDS011;58629;48.808;8.820;2023-07-28T00:35:32;2.13;;;1.88;;
70967;SDS011;58629;48.808;8.820;2023-07-28T00:37:57;2.73;;;2.10;;
70967;SDS011;58629;48.808;8.820;2023-07-28T00:40:23;2.77;;;2.27;;
70967;SDS011;58629;48.808;8.820;2023-07-28T00:42:48;3.33;;;2.40;;
70967;SDS011;58629;48.808;8.820;2023-07-28T00:45:14;3.70;;;2.50;;
70967;SDS011;58629;48.808;8.820;2023-07-28T00:47:39;3.20;;;2.33;;
70967;SDS011;58629;48.808;8.820;2023-07-28T00:50:06;2.30;;;1.90;;
70967;SDS011;58629;48.808;8.820;2023-07-28T00:52:33;2.70;;;2.20;;
70967;SDS011;58629;48.808;8.820;2023-07-28T00:54:58;2.42;;;1.88;;
70967;SDS011;58629;48.808;8.820;2023-07-28T00:57:25;2.42;;;1.88;;
70967;SDS011;58629;48.808;8.820;2023-07-28T00:59:50;3.30;;;2.00;;
70967;SDS011;58629;48.808;8.820;2023-07-28T01:02:16;2.60;;;2.13;;
70967;SDS011;58629;48.808;8.820;2023-07-28T01:04:41;2.57;;;2.00;;
70967;SDS011;58629;48.808;8.820;2023-07-28T01:07:10;2.47;;;2.00;;
70967;SDS011;58629;48.808;8.820;2023-07-28T01:12:38;2.50;;;2.20;;
70967;SDS011;58629;48.808;8.820;2023-07-28T01:15:03;3.53;;;2.10;;
70967;SDS011;58629;48.808;8.820;2023-07-28T01:17:29;3.42;;;2.30;;
70967;SDS011;58629;48.808;8.820;2023-07-28T01:19:54;2.55;;;2.00;;
70967;SDS011;58629;48.808;8.820;2023-07-28T01:22:31;2.27;;;1.93;;
70967;SDS011;58629;48.808;8.820;2023-07-28T01:28:02;2.50;;;2.00;;
70967;SDS011;58629;48.808;8.820;2023-07-28T01:30:29;2.47;;;1.95;;
70967;SDS011;58629;48.808;8.820;2023-07-28T01:32:55;2.30;;;2.03;;
70967;SDS011;58629;48.808;8.820;2023-07-28T01:35:21;2.60;;;1.95;;
70967;SDS011;58629;48.808;8.820;2023-07-28T01:37:46;2.00;;;1.75;;
70967;SDS011;58629;48.808;8.820;2023-07-28T01:40:15;1.70;;;1.60;;
70967;SDS011;58629;48.808;8.820;2023-07-28T01:42:43;2.10;;;1.65;;
70967;SDS011;58629;48.808;8.820;2023-07-28T01:45:09;2.57;;;1.67;;
70967;SDS011;58629;48.808;8.820;2023-07-28T01:47:34;1.90;;;1.70;;
70967;SDS011;58629;48.808;8.820;2023-07-28T01:50:00;2.20;;;1.73;;
70967;SDS011;58629;48.808;8.820;2023-07-28T01:52:25;2.00;;;1.70;;
70967;SDS011;58629;48.808;8.820;2023-07-28T01:54:53;1.50;;;1.40;;
70967;SDS011;58629;48.808;8.820;2023-07-28T01:57:19;1.63;;;1.30;;
70967;SDS011;58629;48.808;8.820;2023-07-28T01:59:44;1.93;;;1.60;;
70967;SDS011;58629;48.808;8.820;2023-07-28T02:02:09;1.67;;;1.50;;
70967;SDS011;58629;48.808;8.820;2023-07-28T02:04:35;1.80;;;1.50;;
70967;SDS011;58629;48.808;8.820;2023-07-28T02:07:00;1.90;;;1.70;;
70967;SDS011;58629;48.808;8.820;2023-07-28T02:09:25;2.37;;;1.70;;
70967;SDS011;58629;48.808;8.820;2023-07-28T02:11:51;1.60;;;1.43;;
70967;SDS011;58629;48.808;8.820;2023-07-28T02:14:17;2.00;;;1.60;;
70967;SDS011;58629;48.808;8.820;2023-07-28T02:16:42;5.07;;;2.50;;
70967;SDS011;58629;48.808;8.820;2023-07-28T02:19:07;1.97;;;1.73;;
70967;SDS011;58629;48.808;8.820;2023-07-28T02:21:33;2.03;;;1.83;;
70967;SDS011;58629;48.808;8.820;2023-07-28T02:23:58;1.70;;;1.60;;
70967;SDS011;58629;48.808;8.820;2023-07-28T02:26:23;2.53;;;2.10;;
70967;SDS011;58629;48.808;8.820;2023-07-28T02:28:49;4.17;;;2.43;;
70967;SDS011;58629;48.808;8.820;2023-07-28T02:31:14;4.63;;;2.50;;
70967;SDS011;58629;48.808;8.820;2023-07-28T02:33:39;6.65;;;2.60;;
70967;SDS011;58629;48.808;8.820;2023-07-28T02:36:05;3.40;;;2.20;;
70967;SDS011;58629;48.808;8.820;2023-07-28T02:38:30;2.80;;;2.40;;
70967;SDS011;58629;48.808;8.820;2023-07-28T02:40:55;2.83;;;1.83;;
70967;SDS011;58629;48.808;8.820;2023-07-28T02:43:21;1.83;;;1.60;;
70967;SDS011;58629;48.808;8.820;2023-07-28T02:45:56;2.47;;;1.87;;
70967;SDS011;58629;48.808;8.820;2023-07-28T02:48:22;1.70;;;1.60;;
70967;SDS011;58629;48.808;8.820;2023-07-28T02:50:49;2.60;;;1.70;;
70967;SDS011;58629;48.808;8.820;2023-07-28T02:53:15;3.42;;;2.20;;
70967;SDS011;58629;48.808;8.820;2023-07-28T02:55:44;2.60;;;2.10;;
70967;SDS011;58629;48.808;8.820;2023-07-28T02:58:10;4.38;;;2.60;;
70967;SDS011;58629;48.808;8.820;2023-07-28T03:00:42;4.57;;;2.90;;
70967;SDS011;58629;48.808;8.820;2023-07-28T03:03:11;3.20;;;2.40;;
70967;SDS011;58629;48.808;8.820;2023-07-28T03:05:37;3.22;;;2.25;;
70967;SDS011;58629;48.808;8.820;2023-07-28T03:08:03;2.40;;;2.00;;
70967;SDS011;58629;48.808;8.820;2023-07-28T03:10:29;2.53;;;2.00;;
70967;SDS011;58629;48.808;8.820;2023-07-28T03:12:54;2.10;;;1.60;;
70967;SDS011;58629;48.808;8.820;2023-07-28T03:15:20;2.20;;;1.58;;
70967;SDS011;58629;48.808;8.820;2023-07-28T03:17:47;1.60;;;1.45;;
70967;SDS011;58629;48.808;8.820;2023-07-28T03:20:12;1.80;;;1.40;;
70967;SDS011;58629;48.808;8.820;2023-07-28T03:22:38;1.67;;;1.40;;
70967;SDS011;58629;48.808;8.820;2023-07-28T03:25:03;1.47;;;1.20;;
70967;SDS011;58629;48.808;8.820;2023-07-28T03:27:29;3.70;;;2.13;;
70967;SDS011;58629;48.808;8.820;2023-07-28T03:29:54;3.30;;;2.60;;
70967;SDS011;58629;48.808;8.820;2023-07-28T03:32:19;3.10;;;2.00;;
70967;SDS011;58629;48.808;8.820;2023-07-28T03:34:45;2.47;;;1.97;;
70967;SDS011;58629;48.808;8.820;2023-07-28T03:37:10;2.20;;;1.80;;
70967;SDS011;58629;48.808;8.820;2023-07-28T03:39:35;2.00;;;1.70;;
70967;SDS011;58629;48.808;8.820;2023-07-28T03:42:00;2.00;;;1.60;;
70967;SDS011;58629;48.808;8.820;2023-07-28T03:44:26;2.20;;;1.77;;
70967;SDS011;58629;48.808;8.820;2023-07-28T03:46:52;2.33;;;1.80;;
70967;SDS011;58629;48.808;8.820;2023-07-28T03:49:17;2.30;;;1.52;;
70967;SDS011;58629;48.808;8.820;2023-07-28T03:51:43;2.10;;;1.67;;
70967;SDS011;58629;48.808;8.820;2023-07-28T03:54:08;2.60;;;1.50;;
70967;SDS011;58629;48.808;8.820;2023-07-28T03:56:33;1.63;;;1.50;;
70967;SDS011;58629;48.808;8.820;2023-07-28T03:58:59;1.60;;;1.50;;
70967;SDS011;58629;48.808;8.820;2023-07-28T04:01:24;2.70;;;1.73;;
70967;SDS011;58629;48.808;8.820;2023-07-28T04:03:49;1.70;;;1.43;;
70967;SDS011;58629;48.808;8.820;2023-07-28T04:06:15;1.90;;;1.50;;
70967;SDS011;58629;48.808;8.820;2023-07-28T04:08:40;2.30;;;1.45;;
70967;SDS011;58629;48.808;8.820;2023-07-28T04:11:06;1.40;;;1.20;;
70967;SDS011;58629;48.808;8.820;2023-07-28T04:13:32;1.70;;;1.35;;
70967;SDS011;58629;48.808;8.820;2023-07-28T04:15:58;1.37;;;1.23;;
70967;SDS011;58629;48.808;8.820;2023-07-28T04:18:23;1.20;;;1.10;;
70967;SDS011;58629;48.808;8.820;2023-07-28T04:20:49;1.23;;;1.00;;
70967;SDS011;58629;48.808;8.820;2023-07-28T04:23:14;1.60;;;1.30;;
70967;SDS011;58629;48.808;8.820;2023-07-28T04:25:39;1.80;;;1.50;;
70967;SDS011;58629;48.808;8.820;2023-07-28T04:28:05;1.60;;;1.50;;
70967;SDS011;58629;48.808;8.820;2023-07-28T04:30:30;1.77;;;1.40;;
70967;SDS011;58629;48.808;8.820;2023-07-28T04:32:55;1.47;;;1.37;;
70967;SDS011;58629;48.808;8.820;2023-07-28T04:35:21;1.90;;;1.63;;
70967;SDS011;58629;48.808;8.820;2023-07-28T04:37:46;2.10;;;1.80;;
70967;SDS011;58629;48.808;8.820;2023-07-28T04:40:11;2.10;;;1.70;;
70967;SDS011;58629;48.808;8.820;2023-07-28T04:42:37;2.00;;;1.63;;
70967;SDS011;58629;48.808;8.820;2023-07-28T04:45:03;2.20;;;1.83;;
70967;SDS011;58629;48.808;8.820;2023-07-28T04:47:29;2.10;;;1.70;;
70967;SDS011;58629;48.808;8.820;2023-07-28T04:49:54;2.00;;;1.80;;
70967;SDS011;58629;48.808;8.820;2023-07-28T04:52:19;3.30;;;2.30;;
70967;SDS011;58629;48.808;8.820;2023-07-28T04:54:44;2.40;;;1.90;;
70967;SDS011;58629;48.808;8.820;2023-07-28T04:57:10;2.40;;;1.97;;
70967;SDS011;58629;48.808;8.820;2023-07-28T04:59:35;2.83;;;2.20;;
70967;SDS011;58629;48.808;8.820;2023-07-28T05:02:00;2.30;;;2.08;;
70967;SDS011;58629;48.808;8.820;2023-07-28T05:04:26;1.83;;;1.60;;
70967;SDS011;58629;48.808;8.820;2023-07-28T05:06:51;1.73;;;1.50;;
70967;SDS011;58629;48.808;8.820;2023-07-28T05:09:16;1.63;;;1.50;;
70967;SDS011;58629;48.808;8.820;2023-07-28T05:11:42;2.10;;;1.87;;
70967;SDS011;58629;48.808;8.820;2023-07-28T05:14:07;1.60;;;1.43;;
70967;SDS011;58629;48.808;8.820;2023-07-28T05:16:33;1.98;;;1.70;;
70967;SDS011;58629;48.808;8.820;2023-07-28T05:18:59;1.90;;;1.52;;
70967;SDS011;58629;48.808;8.820;2023-07-28T05:21:24;1.92;;;1.52;;
70967;SDS011;58629;48.808;8.820;2023-07-28T05:23:50;1.40;;;1.20;;
70967;SDS011;58629;48.808;8.820;2023-07-28T05:26:15;1.40;;;1.20;;
70967;SDS011;58629;48.808;8.820;2023-07-28T05:28:41;1.70;;;1.40;;
70967;SDS011;58629;48.808;8.820;2023-07-28T05:31:06;1.53;;;1.30;;
70967;SDS011;58629;48.808;8.820;2023-07-28T05:33:32;1.45;;;1.17;;
70967;SDS011;58629;48.808;8.820;2023-07-28T05:36:02;1.90;;;1.70;;
70967;SDS011;58629;48.808;8.820;2023-07-28T05:38:28;3.65;;;2.80;;
70967;SDS011;58629;48.808;8.820;2023-07-28T05:40:57;2.47;;;2.20;;
70967;SDS011;58629;48.808;8.820;2023-07-28T05:43:23;2.47;;;2.17;;
70967;SDS011;58629;48.808;8.820;2023-07-28T05:45:48;2.13;;;1.80;;
70967;SDS011;58629;48.808;8.820;2023-07-28T05:48:13;2.10;;;1.90;;
70967;SDS011;58629;48.808;8.820;2023-07-28T05:50:39;2.20;;;1.90;;
70967;SDS011;58629;48.808;8.820;2023-07-28T05:53:04;1.80;;;1.60;;
70967;SDS011;58629;48.808;8.820;2023-07-28T05:55:29;1.93;;;1.70;;
70967;SDS011;58629;48.808;8.820;2023-07-28T05:57:54;1.90;;;1.70;;
70967;SDS011;58629;48.808;8.820;2023-07-28T06:00:20;1.70;;;1.60;;
70967;SDS011;58629;48.808;8.820;2023-07-28T06:02:45;2.10;;;1.88;;
70967;SDS011;58629;48.808;8.820;2023-07-28T06:05:10;2.37;;;1.50;;
70967;SDS011;58629;48.808;8.820;2023-07-28T06:07:36;2.10;;;1.80;;
70967;SDS011;58629;48.808;8.820;2023-07-28T06:10:01;1.90;;;1.70;;
70967;SDS011;58629;48.808;8.820;2023-07-28T06:12:27;1.90;;;1.70;;
70967;SDS011;58629;48.808;8.820;2023-07-28T06:14:52;1.77;;;1.47;;
70967;SDS011;58629;48.808;8.820;2023-07-28T06:17:18;1.93;;;1.67;;
70967;SDS011;58629;48.808;8.820;2023-07-28T06:19:43;1.77;;;1.57;;
70967;SDS011;58629;48.808;8.820;2023-07-28T06:22:08;1.47;;;1.20;;
70967;SDS011;58629;48.808;8.820;2023-07-28T06:24:33;1.60;;;1.30;;
70967;SDS011;58629;48.808;8.820;2023-07-28T06:26:59;1.40;;;1.27;;
70967;SDS011;58629;48.808;8.820;2023-07-28T06:29:24;1.30;;;1.20;;
70967;SDS011;58629;48.808;8.820;2023-07-28T06:31:50;1.58;;;1.40;;
70967;SDS011;58629;48.808;8.820;2023-07-28T06:34:15;1.90;;;1.70;;
70967;SDS011;58629;48.808;8.820;2023-07-28T06:36:40;1.80;;;1.53;;
70967;SDS011;58629;48.808;8.820;2023-07-28T06:39:06;1.73;;;1.60;;
70967;SDS011;58629;48.808;8.820;2023-07-28T06:41:31;1.90;;;1.47;;
70967;SDS011;58629;48.808;8.820;2023-07-28T06:43:57;1.60;;;1.40;;
70967;SDS011;58629;48.808;8.820;2023-07-28T06:46:22;1.60;;;1.50;;
70967;SDS011;58629;48.808;8.820;2023-07-28T06:48:47;1.87;;;1.60;;
70967;SDS011;58629;48.808;8.820;2023-07-28T06:51:12;2.43;;;1.70;;
70967;SDS011;58629;48.808;8.820;2023-07-28T06:53:38;1.87;;;1.57;;
70967;SDS011;58629;48.808;8.820;2023-07-28T06:56:03;1.53;;;1.43;;
70967;SDS011;58629;48.808;8.820;2023-07-28T06:58:29;1.77;;;1.67;;
70967;SDS011;58629;48.808;8.820;2023-07-28T07:00:54;2.37;;;1.97;;
70967;SDS011;58629;48.808;8.820;2023-07-28T07:03:21;2.20;;;1.90;;
70967;SDS011;58629;48.808;8.820;2023-07-28T07:05:48;2.00;;;1.80;;
70967;SDS011;58629;48.808;8.820;2023-07-28T07:08:13;1.50;;;1.40;;
70967;SDS011;58629;48.808;8.820;2023-07-28T07:10:38;2.00;;;1.60;;
70967;SDS011;58629;48.808;8.820;2023-07-28T07:13:04;1.80;;;1.60;;
70967;SDS011;58629;48.808;8.820;2023-07-28T07:15:29;1.93;;;1.60;;
70967;SDS011;58629;48.808;8.820;2023-07-28T07:17:54;1.70;;;1.50;;
70967;SDS011;58629;48.808;8.820;2023-07-28T07:20:19;3.80;;;2.50;;
70967;SDS011;58629;48.808;8.820;2023-07-28T07:22:45;2.40;;;2.07;;
70967;SDS011;58629;48.808;8.820;2023-07-28T07:25:10;3.00;;;1.80;;
70967;SDS011;58629;48.808;8.820;2023-07-28T07:27:35;2.15;;;1.80;;
70967;SDS011;58629;48.808;8.820;2023-07-28T07:30:01;2.70;;;1.87;;
70967;SDS011;58629;48.808;8.820;2023-07-28T07:32:26;2.50;;;1.83;;
70967;SDS011;58629;48.808;8.820;2023-07-28T07:34:52;1.80;;;1.70;;
70967;SDS011;58629;48.808;8.820;2023-07-28T07:37:18;2.25;;;1.60;;
70967;SDS011;58629;48.808;8.820;2023-07-28T07:39:43;2.10;;;1.60;;
70967;SDS011;58629;48.808;8.820;2023-07-28T07:42:09;2.00;;;1.70;;
70967;SDS011;58629;48.808;8.820;2023-07-28T07:44:36;2.00;;;1.63;;
70967;SDS011;58629;48.808;8.820;2023-07-28T07:47:01;2.93;;;1.53;;
70967;SDS011;58629;48.808;8.820;2023-07-28T07:49:37;2.92;;;1.77;;
70967;SDS011;58629;48.808;8.820;2023-07-28T07:52:02;2.30;;;1.90;;
70967;SDS011;58629;48.808;8.820;2023-07-28T07:54:28;2.57;;;1.50;;
70967;SDS011;58629;48.808;8.820;2023-07-28T07:56:53;1.97;;;1.70;;
70967;SDS011;58629;48.808;8.820;2023-07-28T07:59:18;2.65;;;1.35;;
70967;SDS011;58629;48.808;8.820;2023-07-28T08:01:43;3.13;;;1.40;;
70967;SDS011;58629;48.808;8.820;2023-07-28T08:04:09;2.03;;;1.60;;
70967;SDS011;58629;48.808;8.820;2023-07-28T08:06:35;1.90;;;1.45;;
70967;SDS011;58629;48.808;8.820;2023-07-28T08:09:01;2.10;;;1.60;;
70967;SDS011;58629;48.808;8.820;2023-07-28T08:11:27;1.80;;;1.60;;
70967;SDS011;58629;48.808;8.820;2023-07-28T08:13:53;2.00;;;1.60;;
70967;SDS011;58629;48.808;8.820;2023-07-28T08:16:18;2.25;;;1.55;;
70967;SDS011;58629;48.808;8.820;2023-07-28T08:18:43;1.60;;;1.50;;
70967;SDS011;58629;48.808;8.820;2023-07-28T08:21:08;2.03;;;1.80;;
70967;SDS011;58629;48.808;8.820;2023-07-28T08:23:34;1.70;;;1.50;;
70967;SDS011;58629;48.808;8.820;2023-07-28T08:26:00;3.70;;;1.53;;
70967;SDS011;58629;48.808;8.820;2023-07-28T08:28:25;5.60;;;1.70;;
70967;SDS011;58629;48.808;8.820;2023-07-28T08:30:54;1.60;;;1.50;;
70967;SDS011;58629;48.808;8.820;2023-07-28T08:33:21;2.17;;;1.98;;
70967;SDS011;58629;48.808;8.820;2023-07-28T08:35:47;2.17;;;1.87;;
70967;SDS011;58629;48.808;8.820;2023-07-28T08:38:12;2.10;;;1.73;;
70967;SDS011;58629;48.808;8.820;2023-07-28T08:40:38;1.60;;;1.50;;
70967;SDS011;58629;48.808;8.820;2023-07-28T08:43:03;2.50;;;1.77;;
70967;SDS011;58629;48.808;8.820;2023-07-28T08:45:28;1.80;;;1.60;;
70967;SDS011;58629;48.808;8.820;2023-07-28T08:47:54;1.73;;;1.50;;
70967;SDS011;58629;48.808;8.820;2023-07-28T08:50:19;4.83;;;2.00;;
70967;SDS011;58629;48.808;8.820;2023-07-28T08:52:45;2.55;;;1.55;;
70967;SDS011;58629;48.808;8.820;2023-07-28T08:55:10;2.30;;;1.60;;
70967;SDS011;58629;48.808;8.820;2023-07-28T08:57:36;1.73;;;1.63;;
70967;SDS011;58629;48.808;8.820;2023-07-28T09:00:08;1.83;;;1.60;;
70967;SDS011;58629;48.808;8.820;2023-07-28T09:02:36;2.35;;;1.70;;
70967;SDS011;58629;48.808;8.820;2023-07-28T09:05:02;1.90;;;1.67;;
70967;SDS011;58629;48.808;8.820;2023-07-28T09:07:33;1.80;;;1.60;;
70967;SDS011;58629;48.808;8.820;2023-07-28T09:10:02;1.52;;;1.42;;
70967;SDS011;58629;48.808;8.820;2023-07-28T09:12:32;1.90;;;1.60;;
70967;SDS011;58629;48.808;8.820;2023-07-28T09:14:58;1.67;;;1.42;;
70967;SDS011;58629;48.808;8.820;2023-07-28T09:17:23;2.00;;;1.70;;
70967;SDS011;58629;48.808;8.820;2023-07-28T09:19:52;2.70;;;1.70;;
70967;SDS011;58629;48.808;8.820;2023-07-28T09:22:19;1.55;;;1.45;;
70967;SDS011;58629;48.808;8.820;2023-07-28T09:24:45;1.93;;;1.53;;
70967;SDS011;58629;48.808;8.820;2023-07-28T09:27:19;1.77;;;1.50;;
70967;SDS011;58629;48.808;8.820;2023-07-28T09:29:50;1.70;;;1.55;;
70967;SDS011;58629;48.808;8.820;2023-07-28T09:32:26;2.45;;;1.42;;
70967;SDS011;58629;48.808;8.820;2023-07-28T09:35:04;1.63;;;1.40;;
70967;SDS011;58629;48.808;8.820;2023-07-28T09:37:38;1.60;;;1.40;;
70967;SDS011;58629;48.808;8.820;2023-07-28T09:40:09;2.83;;;1.25;;
70967;SDS011;58629;48.808;8.820;2023-07-28T09:42:46;1.60;;;1.50;;
70967;SDS011;58629;48.808;8.820;2023-07-28T09:45:18;1.40;;;1.25;;
70967;SDS011;58629;48.808;8.820;2023-07-28T09:47:47;1.65;;;1.30;;
70967;SDS011;58629;48.808;8.820;2023-07-28T09:50:18;1.60;;;1.00;;
70967;SDS011;58629;48.808;8.820;2023-07-28T09:52:47;1.35;;;1.15;;
70967;SDS011;58629;48.808;8.820;2023-07-28T09:55:15;1.20;;;1.00;;
70967;SDS011;58629;48.808;8.820;2023-07-28T09:57:45;0.95;;;0.88;;
70967;SDS011;58629;48.808;8.820;2023-07-28T10:00:15;1.23;;;0.88;;
70967;SDS011;58629;48.808;8.820;2023-07-28T10:02:42;1.13;;;0.83;;
70967;SDS011;58629;48.808;8.820;2023-07-28T10:05:08;0.68;;;0.60;;
70967;SDS011;58629;48.808;8.820;2023-07-28T10:07:35;0.82;;;0.70;;
70967;SDS011;58629;48.808;8.820;2023-07-28T10:10:07;0.80;;;0.80;;
70967;SDS011;58629;48.808;8.820;2023-07-28T10:15:20;0.70;;;0.70;;
70967;SDS011;58629;48.808;8.820;2023-07-28T10:17:50;1.08;;;0.80;;
70967;SDS011;58629;48.808;8.820;2023-07-28T10:20:36;0.90;;;0.80;;
70967;SDS011;58629;48.808;8.820;2023-07-28T10:25:36;1.38;;;0.70;;
70967;SDS011;58629;48.808;8.820;2023-07-28T10:28:03;1.00;;;0.70;;
70967;SDS011;58629;48.808;8.820;2023-07-28T10:30:37;0.82;;;0.80;;
70967;SDS011;58629;48.808;8.820;2023-07-28T10:33:34;0.70;;;0.70;;
70967;SDS011;58629;48.808;8.820;2023-07-28T10:41:25;1.10;;;0.75;;
70967;SDS011;58629;48.808;8.820;2023-07-28T10:43:51;0.82;;;0.77;;
70967;SDS011;58629;48.808;8.820;2023-07-28T10:46:17;1.93;;;1.00;;
70967;SDS011;58629;48.808;8.820;2023-07-28T10:48:46;0.95;;;0.88;;
70967;SDS011;58629;48.808;8.820;2023-07-28T10:51:46;1.40;;;1.10;;
70967;SDS011;58629;48.808;8.820;2023-07-28T10:54:05;1.05;;;0.95;;
70967;SDS011;58629;48.808;8.820;2023-07-28T10:56:30;1.90;;;1.05;;
70967;SDS011;58629;48.808;8.820;2023-07-28T10:58:59;1.33;;;0.90;;
70967;SDS011;58629;48.808;8.820;2023-07-28T11:01:35;1.23;;;1.10;;
70967;SDS011;58629;48.808;8.820;2023-07-28T11:04:21;1.20;;;1.00;;
70967;SDS011;58629;48.808;8.820;2023-07-28T11:06:48;1.50;;;1.10;;
70967;SDS011;58629;48.808;8.820;2023-07-28T11:09:16;1.20;;;1.10;;
70967;SDS011;58629;48.808;8.820;2023-07-28T11:11:43;1.20;;;1.10;;
70967;SDS011;58629;48.808;8.820;2023-07-28T11:14:09;2.58;;;1.13;;
70967;SDS011;58629;48.808;8.820;2023-07-28T11:16:35;1.80;;;1.30;;
70967;SDS011;58629;48.808;8.820;2023-07-28T11:19:07;1.50;;;1.17;;
70967;SDS011;58629;48.808;8.820;2023-07-28T11:21:37;1.40;;;1.10;;
70967;SDS011;58629;48.808;8.820;2023-07-28T11:24:04;1.83;;;1.40;;
70967;SDS011;58629;48.808;8.820;2023-07-28T11:26:30;1.25;;;1.15;;
70967;SDS011;58629;48.808;8.820;2023-07-28T11:28:55;1.90;;;1.20;;
70967;SDS011;58629;48.808;8.820;2023-07-28T11:31:24;1.45;;;1.30;;
70967;SDS011;58629;48.808;8.820;2023-07-28T11:33:53;1.65;;;1.25;;
70967;SDS011;58629;48.808;8.820;2023-07-28T11:36:22;1.40;;;1.30;;
70967;SDS011;58629;48.808;8.820;2023-07-28T11:38:52;1.92;;;1.30;;
70967;SDS011;58629;48.808;8.820;2023-07-28T11:41:19;1.60;;;1.27;;
70967;SDS011;58629;48.808;8.820;2023-07-28T11:43:46;1.30;;;1.20;;
70967;SDS011;58629;48.808;8.820;2023-07-28T11:51:38;1.85;;;1.27;;
70967;SDS011;58629;48.808;8.820;2023-07-28T11:54:05;3.13;;;1.43;;
70967;SDS011;58629;48.808;8.820;2023-07-28T11:56:30;1.58;;;1.38;;
70967;SDS011;58629;48.808;8.820;2023-07-28T11:58:56;3.22;;;1.50;;
70967;SDS011;58629;48.808;8.820;2023-07-28T12:01:23;2.00;;;1.50;;
70967;SDS011;58629;48.808;8.820;2023-07-28T12:03:48;2.83;;;1.80;;
70967;SDS011;58629;48.808;8.820;2023-07-28T12:06:13;2.20;;;1.90;;
70967;SDS011;58629;48.808;8.820;2023-07-28T12:08:39;2.93;;;1.90;;
70967;SDS011;58629;48.808;8.820;2023-07-28T12:11:05;2.15;;;1.75;;
70967;SDS011;58629;48.808;8.820;2023-07-28T12:13:46;2.27;;;1.70;;
70967;SDS011;58629;48.808;8.820;2023-07-28T12:16:31;1.92;;;1.73;;
70967;SDS011;58629;48.808;8.820;2023-07-28T12:19:09;3.25;;;2.03;;
70967;SDS011;58629;48.808;8.820;2023-07-28T12:21:34;3.93;;;2.20;;
70967;SDS011;58629;48.808;8.820;2023-07-28T12:23:59;3.17;;;2.03;;
70967;SDS011;58629;48.808;8.820;2023-07-28T12:26:25;2.30;;;1.90;;
70967;SDS011;58629;48.808;8.820;2023-07-28T12:28:50;2.55;;;1.70;;
70967;SDS011;58629;48.808;8.820;2023-07-28T12:31:16;4.47;;;1.97;;
70967;SDS011;58629;48.808;8.820;2023-07-28T12:33:41;2.50;;;1.90;;
70967;SDS011;58629;48.808;8.820;2023-07-28T12:36:06;2.10;;;1.80;;
70967;SDS011;58629;48.808;8.820;2023-07-28T12:38:32;3.50;;;2.00;;
70967;SDS011;58629;48.808;8.820;2023-07-28T12:40:57;2.60;;;1.92;;
70967;SDS011;58629;48.808;8.820;2023-07-28T12:43:22;3.15;;;2.08;;
70967;SDS011;58629;48.808;8.820;2023-07-28T12:45:50;3.63;;;2.33;;
70967;SDS011;58629;48.808;8.820;2023-07-28T12:48:15;2.65;;;2.20;;
70967;SDS011;58629;48.808;8.820;2023-07-28T12:50:41;4.07;;;2.23;;
70967;SDS011;58629;48.808;8.820;2023-07-28T12:53:06;2.63;;;2.10;;
70967;SDS011;58629;48.808;8.820;2023-07-28T12:55:31;3.80;;;2.00;;
70967;SDS011;58629;48.808;8.820;2023-07-28T12:57:59;3.33;;;2.08;;
70967;SDS011;58629;48.808;8.820;2023-07-28T13:00:25;4.32;;;2.25;;
70967;SDS011;58629;48.808;8.820;2023-07-28T13:02:50;3.67;;;2.30;;
70967;SDS011;58629;48.808;8.820;2023-07-28T13:05:15;2.70;;;2.07;;
70967;SDS011;58629;48.808;8.820;2023-07-28T13:07:42;2.65;;;2.35;;
70967;SDS011;58629;48.808;8.820;2023-07-28T13:10:08;2.40;;;2.13;;
70967;SDS011;58629;48.808;8.820;2023-07-28T13:12:35;4.03;;;2.03;;
70967;SDS011;58629;48.808;8.820;2023-07-28T13:15:02;3.58;;;2.10;;
70967;SDS011;58629;48.808;8.820;2023-07-28T13:17:27;2.97;;;2.20;;
70967;SDS011;58629;48.808;8.820;2023-07-28T13:19:53;8.50;;;2.33;;
70967;SDS011;58629;48.808;8.820;2023-07-28T13:22:18;3.90;;;2.13;;
70967;SDS011;58629;48.808;8.820;2023-07-28T13:24:43;8.55;;;2.25;;
70967;SDS011;58629;48.808;8.820;2023-07-28T13:27:09;6.70;;;2.20;;
70967;SDS011;58629;48.808;8.820;2023-07-28T13:29:34;4.43;;;2.23;;
70967;SDS011;58629;48.808;8.820;2023-07-28T13:32:00;3.90;;;2.43;;
70967;SDS011;58629;48.808;8.820;2023-07-28T13:34:26;4.70;;;2.35;;
70967;SDS011;58629;48.808;8.820;2023-07-28T13:36:52;2.63;;;2.08;;
70967;SDS011;58629;48.808;8.820;2023-07-28T13:39:18;2.80;;;1.85;;
70967;SDS011;58629;48.808;8.820;2023-07-28T13:41:47;1.75;;;1.50;;
70967;SDS011;58629;48.808;8.820;2023-07-28T13:44:12;2.00;;;1.60;;
70967;SDS011;58629;48.808;8.820;2023-07-28T13:46:37;1.73;;;1.47;;
70967;SDS011;58629;48.808;8.820;2023-07-28T13:49:03;2.10;;;1.50;;
70967;SDS011;58629;48.808;8.820;2023-07-28T13:51:28;4.03;;;1.87;;
70967;SDS011;58629;48.808;8.820;2023-07-28T13:53:54;1.88;;;1.50;;
70967;SDS011;58629;48.808;8.820;2023-07-28T13:56:19;1.70;;;1.33;;
70967;SDS011;58629;48.808;8.820;2023-07-28T13:58:45;1.60;;;1.43;;
70967;SDS011;58629;48.808;8.820;2023-07-28T14:01:10;1.63;;;1.20;;
70967;SDS011;58629;48.808;8.820;2023-07-28T14:03:35;1.42;;;1.20;;
70967;SDS011;58629;48.808;8.820;2023-07-28T14:06:03;1.70;;;1.33;;
70967;SDS011;58629;48.808;8.820;2023-07-28T14:08:31;2.30;;;2.10;;
70967;SDS011;58629;48.808;8.820;2023-07-28T14:10:56;3.15;;;2.22;;
70967;SDS011;58629;48.808;8.820;2023-07-28T14:13:24;3.37;;;2.20;;
70967;SDS011;58629;48.808;8.820;2023-07-28T14:15:49;2.60;;;2.00;;
70967;SDS011;58629;48.808;8.820;2023-07-28T14:18:16;2.85;;;1.85;;
70967;SDS011;58629;48.808;8.820;2023-07-28T14:20:41;2.20;;;1.70;;
70967;SDS011;58629;48.808;8.820;2023-07-28T14:23:27;1.70;;;1.60;;
70967;SDS011;58629;48.808;8.820;2023-07-28T14:25:52;2.17;;;1.98;;
70967;SDS011;58629;48.808;8.820;2023-07-28T14:28:19;2.20;;;1.77;;
70967;SDS011;58629;48.808;8.820;2023-07-28T14:30:45;2.00;;;1.67;;
70967;SDS011;58629;48.808;8.820;2023-07-28T14:33:15;2.40;;;1.58;;
70967;SDS011;58629;48.808;8.820;2023-07-28T14:35:43;1.48;;;1.38;;
70967;SDS011;58629;48.808;8.820;2023-07-28T14:38:09;1.60;;;1.45;;
70967;SDS011;58629;48.808;8.820;2023-07-28T14:40:35;2.22;;;1.40;;
70967;SDS011;58629;48.808;8.820;2023-07-28T14:43:01;1.42;;;1.20;;
70967;SDS011;58629;48.808;8.820;2023-07-28T14:45:27;1.57;;;1.30;;
70967;SDS011;58629;48.808;8.820;2023-07-28T14:47:52;1.67;;;1.30;;
70967;SDS011;58629;48.808;8.820;2023-07-28T14:50:17;2.30;;;2.07;;
70967;SDS011;58629;48.808;8.820;2023-07-28T14:52:43;1.70;;;1.60;;
70967;SDS011;58629;48.808;8.820;2023-07-28T14:55:08;2.17;;;1.95;;
70967;SDS011;58629;48.808;8.820;2023-07-28T14:57:34;3.15;;;2.30;;
70967;SDS011;58629;48.808;8.820;2023-07-28T15:00:00;2.20;;;1.80;;
70967;SDS011;58629;48.808;8.820;2023-07-28T15:02:25;2.25;;;1.60;;
70967;SDS011;58629;48.808;8.820;2023-07-28T15:04:50;3.77;;;2.17;;
70967;SDS011;58629;48.808;8.820;2023-07-28T15:07:17;2.35;;;1.90;;